createdAt,value
2023-05-13T05:35:46.821Z,29.42
2023-05-13T05:38:13.821Z,29.59
2023-05-13T05:40:42.818Z,29.69
2023-05-13T05:43:11.460Z,29.74
2023-05-13T05:45:39.561Z,29.87
2023-05-13T05:48:07.162Z,29.87
2023-05-13T05:50:34.848Z,29.94
2023-05-13T05:53:06.749Z,29.95
2023-05-13T05:55:33.973Z,30.03
2023-05-13T05:58:04.211Z,29.94
2023-05-13T06:00:31.520Z,29.94
2023-05-13T06:02:58.716Z,29.99
2023-05-13T06:05:26.129Z,30.01
2023-05-13T06:07:53.188Z,30.13
2023-05-13T06:10:20.445Z,30.01
2023-05-13T06:12:48.028Z,30.02
2023-05-13T06:15:15.245Z,29.99
2023-05-13T06:17:42.315Z,30.02
2023-05-13T06:20:09.823Z,30.17
2023-05-13T06:22:41.904Z,30.20
2023-05-13T06:25:09.331Z,30.24
2023-05-13T06:27:37.058Z,30.18
2023-05-13T06:30:04.552Z,30.27
2023-05-13T06:32:31.631Z,30.44
2023-05-13T06:35:00.950Z,30.69
2023-05-13T06:37:28.262Z,30.70
2023-05-13T06:39:55.433Z,30.86
2023-05-13T06:42:22.573Z,31.07
2023-05-13T06:44:49.583Z,31.06
2023-05-13T06:47:16.726Z,31.15
2023-05-13T06:49:44.000Z,31.36
2023-05-13T06:52:11.589Z,31.28
2023-05-13T06:54:38.609Z,31.39
2023-05-13T06:57:07.134Z,31.56
2023-05-13T06:59:34.144Z,31.54
2023-05-13T07:02:01.175Z,31.63
2023-05-13T07:04:30.633Z,31.79
2023-05-13T07:06:58.062Z,31.87
2023-05-13T07:09:25.085Z,31.92
2023-05-13T07:11:52.485Z,31.87
2023-05-13T07:14:20.153Z,31.92
2023-05-13T07:16:47.210Z,32.03
2023-05-13T07:19:14.309Z,32.09
2023-05-13T07:21:41.579Z,32.11
2023-05-13T07:24:08.672Z,32.19
2023-05-13T07:26:35.758Z,32.18
2023-05-13T07:29:02.734Z,32.19
2023-05-13T07:31:30.916Z,32.27
2023-05-13T07:33:58.292Z,32.30
2023-05-13T07:36:25.444Z,32.33
2023-05-13T07:38:52.464Z,32.39
2023-05-13T07:41:19.687Z,32.47
2023-05-13T07:43:46.667Z,32.38
2023-05-13T07:46:13.680Z,32.39
2023-05-13T07:48:41.396Z,32.49
2023-05-13T07:51:08.788Z,32.41
2023-05-13T07:53:36.880Z,32.48
2023-05-13T07:56:04.301Z,32.48
2023-05-13T07:58:31.385Z,32.54
2023-05-13T08:00:58.500Z,32.46
2023-05-13T08:03:25.654Z,32.59
2023-05-13T08:05:52.730Z,32.62
2023-05-13T08:08:19.700Z,32.51
2023-05-13T08:10:46.775Z,32.68
2023-05-13T08:13:13.797Z,32.53
2023-05-13T08:15:41.649Z,32.57
2023-05-13T08:18:08.798Z,32.44
2023-05-13T08:20:36.142Z,32.67
2023-05-13T08:23:03.099Z,32.58
2023-05-13T08:25:30.158Z,32.76
2023-05-13T08:27:58.145Z,32.79
2023-05-13T08:30:25.128Z,32.86
2023-05-13T08:32:52.173Z,32.72
2023-05-13T08:35:19.405Z,32.82
2023-05-13T08:37:46.546Z,32.85
2023-05-13T08:40:13.859Z,32.88
2023-05-13T08:42:43.002Z,32.86
2023-05-13T08:45:13.414Z,32.89
2023-05-13T08:47:58.690Z,33.00
2023-05-13T08:50:26.422Z,32.99
2023-05-13T08:52:54.303Z,33.04
2023-05-13T08:55:22.977Z,32.95
2023-05-13T08:57:50.976Z,33.00
2023-05-13T09:00:19.982Z,32.79
2023-05-13T09:02:49.577Z,32.93
2023-05-13T09:05:17.610Z,32.78
2023-05-13T09:07:44.909Z,32.75
2023-05-13T09:10:12.110Z,32.81
2023-05-13T09:12:50.417Z,32.96
2023-05-13T09:15:20.695Z,32.92
2023-05-13T09:17:54.194Z,33.00
2023-05-13T09:20:22.693Z,33.01
2023-05-13T09:22:58.394Z,33.06
2023-05-13T09:25:26.310Z,33.17
2023-05-13T09:27:57.956Z,33.26
2023-05-13T09:30:29.583Z,33.21
2023-05-13T09:33:17.094Z,33.20
2023-05-13T09:35:54.173Z,33.29
2023-05-13T09:38:25.722Z,33.36
2023-05-13T09:40:58.179Z,33.48
2023-05-13T09:43:27.364Z,33.66
2023-05-13T09:46:02.050Z,33.80
2023-05-13T09:48:32.771Z,33.74
2023-05-13T09:51:00.236Z,33.71
2023-05-13T09:53:28.326Z,33.77
2023-05-13T09:55:57.361Z,33.81
2023-05-13T09:58:25.963Z,33.78
2023-05-13T10:00:53.272Z,33.93
2023-05-13T10:03:20.463Z,34.24
2023-05-13T10:05:50.045Z,34.48
2023-05-13T10:08:18.639Z,34.75
2023-05-13T10:10:48.371Z,35.27
2023-05-13T10:13:18.381Z,35.78
2023-05-13T10:15:53.654Z,36.03
2023-05-13T10:18:22.511Z,36.22
2023-05-13T10:20:55.935Z,36.24
2023-05-13T10:23:24.797Z,36.56
2023-05-13T10:25:54.478Z,36.86
2023-05-13T10:28:21.827Z,36.89
2023-05-13T10:30:52.414Z,37.28
2023-05-13T10:33:20.224Z,37.57
2023-05-13T10:36:06.457Z,37.93
2023-05-13T10:39:08.251Z,38.21
2023-05-13T10:41:56.495Z,38.51
2023-05-13T10:44:24.212Z,38.48
2023-05-13T10:46:51.547Z,38.44
2023-05-13T10:49:18.758Z,38.75
2023-05-13T10:51:50.177Z,39.12
2023-05-13T10:54:21.941Z,39.29
2023-05-13T10:56:59.306Z,39.33
2023-05-13T10:59:30.725Z,39.53
2023-05-13T11:01:57.892Z,39.51
2023-05-13T11:04:24.965Z,39.64
2023-05-13T11:06:53.075Z,39.51
2023-05-13T11:09:23.290Z,39.45
2023-05-13T11:12:00.668Z,39.39
2023-05-13T11:14:30.551Z,39.30
2023-05-13T11:17:04.621Z,39.24
2023-05-13T11:19:58.475Z,39.24
2023-05-13T11:22:25.744Z,38.82
2023-05-13T11:25:06.676Z,38.57
2023-05-13T11:27:39.374Z,38.72
2023-05-13T11:30:09.191Z,38.65
2023-05-13T11:32:54.422Z,38.16
2023-05-13T11:35:25.380Z,37.78
2023-05-13T11:37:52.450Z,37.56
2023-05-13T11:40:39.144Z,37.84
2023-05-13T11:43:06.561Z,38.16
2023-05-13T11:45:34.275Z,38.05
2023-05-13T11:48:19.422Z,37.55
2023-05-13T11:50:46.840Z,37.57
2023-05-13T11:53:22.668Z,37.24
2023-05-13T11:55:50.282Z,37.17
2023-05-13T11:58:17.344Z,37.44
2023-05-13T12:00:46.531Z,37.36
2023-05-13T12:03:16.294Z,37.79
2023-05-13T12:05:44.848Z,38.32
2023-05-13T12:08:11.949Z,38.49
2023-05-13T12:10:45.746Z,38.82
2023-05-13T12:13:13.449Z,38.05
2023-05-13T12:15:41.585Z,37.50
2023-05-13T12:18:08.823Z,36.86
2023-05-13T12:20:36.467Z,36.33
2023-05-13T12:23:04.731Z,36.06
2023-05-13T12:25:40.388Z,35.93
2023-05-13T12:28:21.650Z,35.84
2023-05-13T12:30:52.940Z,35.89
2023-05-13T12:33:23.085Z,36.08
2023-05-13T12:35:52.324Z,35.97
2023-05-13T12:38:24.914Z,35.76
2023-05-13T12:40:53.395Z,35.78
2023-05-13T12:43:20.985Z,35.73
2023-05-13T12:45:53.626Z,35.83
2023-05-13T12:48:23.936Z,36.35
2023-05-13T12:50:51.760Z,36.74
2023-05-13T12:53:18.837Z,36.75
2023-05-13T12:55:45.895Z,36.62
2023-05-13T12:58:13.377Z,36.49
2023-05-13T13:00:40.575Z,36.42
2023-05-13T13:03:08.318Z,36.33
2023-05-13T13:05:35.840Z,36.20
2023-05-13T13:08:05.516Z,36.00
2023-05-13T13:10:32.558Z,36.00
2023-05-13T13:12:59.575Z,35.83
2023-05-13T13:15:26.713Z,35.56
2023-05-13T13:17:53.788Z,35.31
2023-05-13T13:20:20.822Z,35.21
2023-05-13T13:22:47.902Z,35.13
2023-05-13T13:25:14.938Z,34.82
2023-05-13T13:27:41.980Z,34.69
2023-05-13T13:30:09.424Z,34.46
2023-05-13T13:32:36.463Z,34.39
2023-05-13T13:35:05.830Z,34.29
2023-05-13T13:37:32.905Z,34.54
2023-05-13T13:39:59.987Z,34.64
2023-05-13T13:42:40.313Z,34.68
2023-05-13T13:45:11.739Z,34.83
2023-05-13T13:47:38.878Z,34.99
2023-05-13T13:50:06.725Z,35.34
2023-05-13T13:52:35.228Z,35.63
2023-05-13T13:55:02.270Z,35.73
2023-05-13T13:57:29.292Z,35.80
2023-05-13T13:59:56.360Z,35.58
2023-05-13T14:02:23.513Z,35.37
2023-05-13T14:04:50.974Z,35.21
2023-05-13T14:07:18.281Z,35.27
2023-05-13T14:09:45.328Z,35.40
2023-05-13T14:12:12.286Z,35.13
2023-05-13T14:14:39.290Z,34.95
2023-05-13T14:17:06.323Z,34.87
2023-05-13T14:19:33.328Z,34.98
2023-05-13T14:22:00.419Z,34.86
2023-05-13T14:24:27.970Z,34.89
2023-05-13T14:26:55.588Z,34.93
2023-05-13T14:29:22.672Z,34.87
2023-05-13T14:31:49.991Z,34.93
2023-05-13T14:34:16.990Z,34.91
2023-05-13T14:36:44.087Z,34.80
2023-05-13T14:39:11.253Z,34.65
2023-05-13T14:41:39.630Z,34.73
2023-05-13T14:44:06.718Z,34.93
2023-05-13T14:46:37.304Z,34.99
2023-05-13T14:49:04.554Z,34.98
2023-05-13T14:51:31.785Z,35.07
2023-05-13T14:53:58.770Z,35.19
2023-05-13T14:56:25.820Z,35.03
2023-05-13T14:58:53.686Z,35.09
2023-05-13T15:01:20.955Z,35.21
2023-05-13T15:03:47.962Z,35.14
2023-05-13T15:06:15.244Z,35.04
2023-05-13T15:08:42.236Z,35.07
2023-05-13T15:11:09.218Z,35.10
2023-05-13T15:13:37.206Z,35.02
2023-05-13T15:16:04.833Z,35.03
2023-05-13T15:18:31.950Z,34.85
2023-05-13T15:20:59.104Z,34.72
2023-05-13T15:23:26.079Z,34.79
2023-05-13T15:25:53.046Z,34.70
2023-05-13T15:28:20.101Z,34.45
2023-05-13T15:30:47.272Z,34.47
2023-05-13T15:33:14.404Z,34.39
2023-05-13T15:35:42.762Z,34.32
2023-05-13T15:38:11.040Z,34.44
2023-05-13T15:40:39.428Z,34.33
2023-05-13T15:43:06.746Z,34.35
2023-05-13T15:45:34.660Z,34.31
2023-05-13T15:48:01.771Z,34.23
2023-05-13T15:50:28.944Z,34.17
2023-05-13T15:52:55.961Z,34.25
2023-05-13T15:55:22.960Z,34.24
2023-05-13T15:57:50.605Z,34.25
2023-05-13T16:00:18.419Z,34.28
2023-05-13T16:02:45.757Z,34.13
2023-05-13T16:05:15.728Z,34.22
2023-05-13T16:07:43.021Z,34.06
2023-05-13T16:10:10.558Z,34.11
2023-05-13T16:12:37.764Z,34.04
2023-05-13T16:15:05.218Z,33.89
2023-05-13T16:17:33.183Z,33.76
2023-05-13T16:20:00.415Z,33.75
2023-05-13T16:22:33.747Z,33.70
2023-05-13T16:25:09.362Z,33.55
2023-05-13T16:27:37.370Z,33.54
2023-05-13T16:30:06.811Z,33.45
2023-05-13T16:32:35.238Z,33.27
2023-05-13T16:35:03.710Z,33.19
2023-05-13T16:37:31.864Z,33.08
2023-05-13T16:39:59.190Z,33.07
2023-05-13T16:42:26.239Z,33.02
2023-05-13T16:44:53.264Z,32.93
2023-05-13T16:47:20.367Z,32.85
2023-05-13T16:49:50.172Z,32.67
2023-05-13T16:52:17.325Z,32.70
2023-05-13T16:54:45.152Z,32.66
2023-05-13T16:57:12.220Z,32.68
2023-05-13T16:59:39.478Z,32.71
2023-05-13T17:02:07.918Z,32.68
2023-05-13T17:04:35.755Z,32.68
2023-05-13T17:07:03.479Z,32.60
2023-05-13T17:09:31.019Z,32.54
2023-05-13T17:11:58.124Z,32.68
2023-05-13T17:14:25.252Z,32.58
2023-05-13T17:16:52.482Z,32.65
2023-05-13T17:19:19.884Z,32.66
2023-05-13T17:21:47.400Z,32.67
2023-05-13T17:24:14.428Z,32.55
2023-05-13T17:26:41.442Z,32.73
2023-05-13T17:29:08.465Z,32.67
2023-05-13T17:31:35.619Z,32.69
2023-05-13T17:34:02.679Z,32.67
2023-05-13T17:36:29.659Z,32.66
2023-05-13T17:38:56.762Z,32.53
2023-05-13T17:41:23.844Z,32.65
2023-05-13T17:43:50.971Z,32.53
2023-05-13T17:46:18.118Z,32.65
2023-05-13T17:48:45.217Z,32.63
2023-05-13T17:51:12.306Z,32.64
2023-05-13T17:53:39.351Z,32.49
2023-05-13T17:56:08.567Z,32.60
2023-05-13T17:58:35.603Z,32.46
2023-05-13T18:01:03.384Z,32.47
2023-05-13T18:03:30.506Z,32.56
2023-05-13T18:05:57.703Z,32.55
2023-05-13T18:08:24.848Z,32.41
2023-05-13T18:10:51.914Z,32.54
2023-05-13T18:13:18.933Z,32.51
2023-05-13T18:15:46.245Z,32.39
2023-05-13T18:18:13.692Z,32.49
2023-05-13T18:20:42.298Z,32.37
2023-05-13T18:23:09.460Z,32.35
2023-05-13T18:25:42.627Z,32.46
2023-05-13T18:28:19.438Z,32.42
2023-05-13T18:30:46.405Z,32.30
2023-05-13T18:33:13.366Z,32.33
2023-05-13T18:35:40.625Z,32.37
2023-05-13T18:38:07.655Z,32.22
2023-05-13T18:40:34.671Z,32.16
2023-05-13T18:43:01.723Z,32.24
2023-05-13T18:45:28.875Z,32.15
2023-05-13T18:47:56.073Z,32.26
2023-05-13T18:50:23.556Z,32.25
2023-05-13T18:52:50.693Z,32.23
2023-05-13T18:55:18.304Z,32.24
2023-05-13T18:57:45.328Z,32.09
2023-05-13T19:00:12.667Z,32.06
2023-05-13T19:02:39.919Z,32.18
2023-05-13T19:05:07.825Z,32.16
2023-05-13T19:07:34.848Z,32.13
2023-05-13T19:10:01.835Z,32.01
2023-05-13T19:12:28.860Z,32.11
2023-05-13T19:14:55.909Z,31.99
2023-05-13T19:17:23.079Z,32.10
2023-05-13T19:19:50.239Z,31.98
2023-05-13T19:22:17.355Z,32.05
2023-05-13T19:24:44.320Z,32.09
2023-05-13T19:27:11.603Z,32.07
2023-05-13T19:29:38.621Z,31.93
2023-05-13T19:32:06.468Z,31.92
2023-05-13T19:34:33.542Z,31.90
2023-05-13T19:37:00.613Z,32.00
2023-05-13T19:39:27.611Z,31.85
2023-05-13T19:41:54.764Z,31.96
2023-05-13T19:44:21.798Z,31.96
2023-05-13T19:46:48.799Z,31.84
2023-05-13T19:49:16.043Z,31.80
2023-05-13T19:51:43.453Z,31.84
2023-05-13T19:54:12.040Z,31.89
2023-05-13T19:56:39.074Z,31.89
2023-05-13T19:59:06.056Z,31.90
2023-05-13T20:01:33.819Z,31.82
2023-05-13T20:04:01.226Z,31.88
2023-05-13T20:06:28.360Z,31.78
2023-05-13T20:08:55.510Z,31.70
2023-05-13T20:11:22.832Z,31.69
2023-05-13T20:13:49.865Z,31.68
2023-05-13T20:16:16.895Z,31.78
2023-05-13T20:18:44.076Z,31.82
2023-05-13T20:21:11.165Z,31.81
2023-05-13T20:23:38.164Z,31.67
2023-05-13T20:26:05.270Z,31.64
2023-05-13T20:28:32.355Z,31.64
2023-05-13T20:31:02.650Z,31.72
2023-05-13T20:33:30.004Z,31.62
2023-05-13T20:35:57.413Z,31.53
2023-05-13T20:38:24.387Z,31.62
2023-05-13T20:40:51.418Z,31.46
2023-05-13T20:43:19.094Z,31.57
2023-05-13T20:45:46.137Z,31.55
2023-05-13T20:48:13.884Z,31.43
2023-05-13T20:50:41.226Z,31.54
2023-05-13T20:53:08.292Z,31.52
2023-05-13T20:55:35.397Z,31.37
2023-05-13T20:58:02.404Z,31.35
2023-05-13T21:00:29.399Z,31.31
2023-05-13T21:02:56.942Z,31.40
2023-05-13T21:05:24.282Z,31.37
2023-05-13T21:07:51.652Z,31.36
2023-05-13T21:10:18.678Z,31.32
2023-05-13T21:12:48.010Z,31.30
2023-05-13T21:15:15.283Z,31.20
2023-05-13T21:17:42.624Z,31.21
2023-05-13T21:20:11.112Z,31.08
2023-05-13T21:22:38.141Z,31.17
2023-05-13T21:25:05.717Z,31.02
2023-05-13T21:27:32.705Z,31.06
2023-05-13T21:29:59.705Z,31.13
2023-05-13T21:32:26.904Z,31.10
2023-05-13T21:34:55.603Z,30.97
2023-05-13T21:37:22.902Z,30.94
2023-05-13T21:39:49.950Z,30.91
2023-05-13T21:42:17.023Z,30.99
2023-05-13T21:44:44.041Z,30.83
2023-05-13T21:47:11.119Z,30.80
2023-05-13T21:49:38.205Z,30.87
2023-05-13T21:52:05.909Z,30.77
2023-05-13T21:54:32.928Z,30.79
2023-05-13T21:57:00.155Z,30.87
2023-05-13T21:59:27.121Z,30.72
2023-05-13T22:01:54.183Z,30.82
2023-05-13T22:04:21.225Z,30.80
2023-05-13T22:06:48.475Z,30.78
2023-05-13T22:09:15.876Z,30.65
2023-05-13T22:11:42.883Z,30.71
2023-05-13T22:14:09.895Z,30.60
2023-05-13T22:16:37.204Z,30.70
2023-05-13T22:19:04.885Z,30.66
2023-05-13T22:21:32.706Z,30.64
2023-05-13T22:23:59.884Z,30.55
2023-05-13T22:26:26.955Z,30.62
2023-05-13T22:28:53.948Z,30.59
2023-05-13T22:31:21.266Z,30.68
2023-05-13T22:33:48.454Z,30.78
2023-05-13T22:36:15.722Z,30.72
2023-05-13T22:38:43.049Z,30.89
2023-05-13T22:41:11.942Z,30.88
2023-05-13T22:43:39.084Z,31.00
2023-05-13T22:46:06.300Z,30.94
2023-05-13T22:48:33.278Z,31.05
2023-05-13T22:51:00.235Z,30.98
2023-05-13T22:53:27.275Z,31.05
2023-05-13T22:55:54.398Z,31.01
2023-05-13T22:58:21.844Z,30.99
2023-05-13T23:00:49.840Z,30.98
2023-05-13T23:03:17.142Z,30.92
2023-05-13T23:05:44.185Z,30.83
2023-05-13T23:08:11.326Z,30.86
2023-05-13T23:10:38.354Z,30.67
2023-05-13T23:13:06.064Z,30.69
2023-05-13T23:15:33.577Z,30.71
2023-05-13T23:18:00.628Z,30.57
2023-05-13T23:20:27.804Z,30.60
2023-05-13T23:22:55.772Z,30.54
2023-05-13T23:25:22.888Z,30.52
2023-05-13T23:27:51.406Z,30.44
2023-05-13T23:30:18.566Z,30.43
2023-05-13T23:32:46.437Z,30.32
2023-05-13T23:35:13.493Z,30.38
2023-05-13T23:37:40.726Z,30.22
2023-05-13T23:40:08.332Z,30.20
2023-05-13T23:42:36.003Z,30.30
2023-05-13T23:45:03.075Z,30.28
2023-05-13T23:47:30.268Z,30.15
2023-05-13T23:49:58.336Z,30.18
2023-05-13T23:52:25.384Z,30.20
2023-05-13T23:54:52.366Z,30.05
2023-05-13T23:57:19.504Z,30.02
2023-05-13T23:59:46.612Z,29.99
